Time;durP1;ratioP1;P1;durP2;ratioP2;P2;SDS_P1;SDS_P2;PMS_P1;PMS_P2;Temp;Humidity;BMP_temperature;BMP_pressure;BME280_temperature;BME280_humidity;BME280_pressure;Samples;Min_cycle;Max_cycle;Signal;HPM_P1;HPM_P2
2022/04/24 00:00:27;;;;;;;11.43;8.65;;;;;;;;;;5095254;28;20039;-74
2022/04/24 00:02:53;;;;;;;12.10;9.68;;;;;;;;;;5095418;28;20054;-74
2022/04/24 00:05:19;;;;;;;12.07;8.80;;;;;;;;;;5091649;28;20122;-74
2022/04/24 00:07:46;;;;;;;13.25;9.02;;;;;;;;;;5095121;28;20123;-74
2022/04/24 00:10:12;;;;;;;12.95;8.93;;;;;;;;;;5094863;28;20081;-74
2022/04/24 00:12:38;;;;;;;13.57;9.73;;;;;;;;;;5077957;28;20036;-74
2022/04/24 00:15:05;;;;;;;11.88;8.93;;;;;;;;;;5094592;28;20124;-74
2022/04/24 00:17:31;;;;;;;16.00;9.05;;;;;;;;;;5094621;28;20082;-74
2022/04/24 00:19:57;;;;;;;12.75;9.10;;;;;;;;;;5094841;28;20036;-74
2022/04/24 00:22:23;;;;;;;12.32;9.18;;;;;;;;;;5079598;28;20089;-74
2022/04/24 00:24:49;;;;;;;11.63;9.27;;;;;;;;;;5086663;28;20043;-74
2022/04/24 00:27:16;;;;;;;14.27;8.93;;;;;;;;;;5094179;28;20044;-74
2022/04/24 00:29:43;;;;;;;12.40;8.90;;;;;;;;;;5094798;28;20474;-74
2022/04/24 00:32:12;;;;;;;14.45;9.93;;;;;;;;;;5094107;28;20039;-74
2022/04/24 00:34:38;;;;;;;12.00;8.95;;;;;;;;;;5094105;28;20062;-74
2022/04/24 00:37:05;;;;;;;14.25;10.10;;;;;;;;;;5074037;28;20122;-74
2022/04/24 00:39:31;;;;;;;13.43;9.88;;;;;;;;;;5094311;28;20434;-74
2022/04/24 00:41:57;;;;;;;11.77;8.60;;;;;;;;;;5094768;28;20040;-74
2022/04/24 00:44:23;;;;;;;18.23;10.63;;;;;;;;;;5077075;28;20044;-74
2022/04/24 00:46:53;;;;;;;14.95;9.35;;;;;;;;;;5094548;28;20035;-74
2022/04/24 00:49:19;;;;;;;13.55;10.18;;;;;;;;;;5094111;28;20035;-74
2022/04/24 00:51:46;;;;;;;12.85;9.05;;;;;;;;;;5094382;28;20463;-74
2022/04/24 00:54:12;;;;;;;15.05;10.45;;;;;;;;;;5094011;28;20046;-74
2022/04/24 00:56:40;;;;;;;14.68;10.27;;;;;;;;;;5077146;28;20035;-74
2022/04/24 00:59:07;;;;;;;14.30;10.40;;;;;;;;;;5093975;28;20035;-74
2022/04/24 01:01:43;;;;;;;15.65;10.98;;;;;;;;;;5094124;28;20104;-74
2022/04/24 01:04:10;;;;;;;13.98;9.98;;;;;;;;;;5094004;28;20039;-74
2022/04/24 01:06:41;;;;;;;14.27;9.90;;;;;;;;;;5091364;28;20043;-74
2022/04/24 01:09:20;;;;;;;14.02;10.20;;;;;;;;;;5076668;28;20036;-74
2022/04/24 01:11:50;;;;;;;15.25;10.77;;;;;;;;;;5091022;28;20047;-74
2022/04/24 01:14:17;;;;;;;13.00;9.98;;;;;;;;;;5093616;28;20123;-74
2022/04/24 01:16:44;;;;;;;13.10;9.73;;;;;;;;;;5076895;28;20126;-74
2022/04/24 01:19:11;;;;;;;14.38;10.35;;;;;;;;;;5093827;28;20040;-74
2022/04/24 01:21:39;;;;;;;14.45;9.73;;;;;;;;;;5087238;28;20394;-74
2022/04/24 01:24:06;;;;;;;13.40;9.68;;;;;;;;;;5091739;28;20048;-74
2022/04/24 01:26:32;;;;;;;15.38;10.68;;;;;;;;;;5075144;28;20054;-74
2022/04/24 01:28:58;;;;;;;13.77;10.30;;;;;;;;;;5092041;28;20066;-74
2022/04/24 01:31:24;;;;;;;14.23;10.32;;;;;;;;;;5092265;28;20399;-74
2022/04/24 01:33:51;;;;;;;14.10;10.10;;;;;;;;;;5091600;28;20452;-74
2022/04/24 01:36:17;;;;;;;13.55;10.38;;;;;;;;;;5091463;28;20127;-74
2022/04/24 01:38:43;;;;;;;14.43;9.88;;;;;;;;;;5087212;28;20502;-74
2022/04/24 01:41:09;;;;;;;12.85;10.15;;;;;;;;;;5080568;28;20407;-74
2022/04/24 01:43:39;;;;;;;13.38;9.93;;;;;;;;;;5091546;28;20047;-74
2022/04/24 01:46:06;;;;;;;13.40;10.20;;;;;;;;;;5091376;28;20039;-74
2022/04/24 01:48:35;;;;;;;13.30;10.40;;;;;;;;;;5091362;28;20070;-74
2022/04/24 01:51:05;;;;;;;13.00;10.10;;;;;;;;;;5091611;28;20343;-74
2022/04/24 01:53:32;;;;;;;14.73;10.30;;;;;;;;;;5079561;28;20032;-74
2022/04/24 01:55:58;;;;;;;13.18;10.32;;;;;;;;;;5088155;28;20046;-74
2022/04/24 01:58:25;;;;;;;14.43;11.00;;;;;;;;;;5090856;28;20044;-74
2022/04/24 02:00:52;;;;;;;13.75;10.18;;;;;;;;;;5091659;28;20544;-74
2022/04/24 02:03:18;;;;;;;13.95;10.70;;;;;;;;;;5091485;28;20097;-74
2022/04/24 02:05:44;;;;;;;15.77;10.63;;;;;;;;;;5074134;28;20070;-74
2022/04/24 02:08:10;;;;;;;14.82;10.98;;;;;;;;;;5091062;28;20054;-74
2022/04/24 02:10:37;;;;;;;14.05;10.85;;;;;;;;;;5074088;28;20040;-74
2022/04/24 02:13:09;;;;;;;16.30;11.25;;;;;;;;;;5090972;28;20357;-74
2022/04/24 02:15:35;;;;;;;15.32;10.85;;;;;;;;;;5087495;28;20127;-74
2022/04/24 02:18:02;;;;;;;13.52;10.70;;;;;;;;;;5091098;28;20039;-73
2022/04/24 02:20:31;;;;;;;15.00;10.80;;;;;;;;;;5074233;28;20344;-74
2022/04/24 02:22:58;;;;;;;14.13;10.75;;;;;;;;;;5091281;28;20052;-74
2022/04/24 02:25:25;;;;;;;13.57;10.60;;;;;;;;;;5090945;28;20450;-74
2022/04/24 02:27:55;;;;;;;15.45;11.10;;;;;;;;;;5083888;28;20134;-74
2022/04/24 02:30:25;;;;;;;14.00;10.55;;;;;;;;;;5095700;28;20448;-74
2022/04/24 02:32:51;;;;;;;12.38;10.25;;;;;;;;;;5097497;28;20084;-74
2022/04/24 02:35:17;;;;;;;15.60;11.63;;;;;;;;;;5085822;28;20267;-74
2022/04/24 02:37:44;;;;;;;13.93;10.57;;;;;;;;;;5090415;28;20039;-74
2022/04/24 02:40:10;;;;;;;13.65;10.88;;;;;;;;;;5075556;28;20118;-74
2022/04/24 02:42:40;;;;;;;14.93;11.43;;;;;;;;;;5075732;28;20050;-74
2022/04/24 02:45:07;;;;;;;16.02;10.90;;;;;;;;;;5092776;28;20531;-74
2022/04/24 02:47:34;;;;;;;16.90;11.77;;;;;;;;;;5092692;28;20390;-74
2022/04/24 02:50:00;;;;;;;14.10;11.50;;;;;;;;;;5092496;28;20433;-74
2022/04/24 02:52:26;;;;;;;15.70;11.38;;;;;;;;;;5089357;28;20062;-74
2022/04/24 02:54:52;;;;;;;16.70;11.75;;;;;;;;;;5092555;28;20479;-74
2022/04/24 02:57:19;;;;;;;14.18;11.27;;;;;;;;;;5092402;28;20040;-74
2022/04/24 02:59:48;;;;;;;14.77;11.90;;;;;;;;;;5091865;28;20088;-74
2022/04/24 03:02:14;;;;;;;15.32;11.13;;;;;;;;;;5086851;28;20036;-74
2022/04/24 03:04:41;;;;;;;16.13;12.52;;;;;;;;;;5089166;28;20552;-74
2022/04/24 03:07:07;;;;;;;15.07;11.55;;;;;;;;;;5075289;28;20057;-74
2022/04/24 03:09:34;;;;;;;14.90;11.75;;;;;;;;;;5096147;28;20624;-74
2022/04/24 03:12:00;;;;;;;14.80;11.43;;;;;;;;;;5096371;28;20044;-74
2022/04/24 03:14:27;;;;;;;15.70;10.85;;;;;;;;;;5079446;28;20039;-73
2022/04/24 03:16:53;;;;;;;16.02;11.25;;;;;;;;;;5096156;28;20048;-73
2022/04/24 03:19:19;;;;;;;15.30;11.10;;;;;;;;;;5088603;28;20503;-75
2022/04/24 03:21:45;;;;;;;15.63;11.05;;;;;;;;;;5087339;28;20119;-73
2022/04/24 03:24:11;;;;;;;15.40;11.00;;;;;;;;;;5096532;28;20160;-73
2022/04/24 03:26:37;;;;;;;15.02;11.40;;;;;;;;;;5095899;28;20040;-73
2022/04/24 03:29:03;;;;;;;16.80;12.35;;;;;;;;;;5095870;28;20047;-74
2022/04/24 03:31:29;;;;;;;15.05;11.35;;;;;;;;;;5096019;28;20360;-73
2022/04/24 03:33:56;;;;;;;15.63;11.50;;;;;;;;;;5075282;28;20052;-74
2022/04/24 03:36:22;;;;;;;13.43;10.95;;;;;;;;;;5092021;28;20055;-73
2022/04/24 03:38:48;;;;;;;14.73;10.93;;;;;;;;;;5092252;28;20028;-74
2022/04/24 03:41:14;;;;;;;14.82;11.13;;;;;;;;;;5092385;28;20109;-74
2022/04/24 03:43:40;;;;;;;16.48;10.95;;;;;;;;;;5092326;28;20545;-73
2022/04/24 03:46:06;;;;;;;15.32;11.05;;;;;;;;;;5092054;28;20097;-74
2022/04/24 03:48:34;;;;;;;14.45;10.98;;;;;;;;;;5092240;28;20040;-73
2022/04/24 03:51:01;;;;;;;13.63;10.55;;;;;;;;;;5075069;28;20086;-73
2022/04/24 03:53:27;;;;;;;16.55;11.70;;;;;;;;;;5092167;28;20560;-74
2022/04/24 03:55:53;;;;;;;14.98;11.85;;;;;;;;;;5092191;28;20089;-74
2022/04/24 03:58:20;;;;;;;15.88;10.93;;;;;;;;;;5090974;28;20150;-74
2022/04/24 04:00:47;;;;;;;15.25;10.60;;;;;;;;;;5088602;28;20071;-74
2022/04/24 04:03:13;;;;;;;16.20;11.27;;;;;;;;;;5091923;28;20048;-74
2022/04/24 04:05:40;;;;;;;15.13;10.73;;;;;;;;;;5090830;28;20473;-75
2022/04/24 04:08:06;;;;;;;14.45;11.35;;;;;;;;;;5091981;28;20383;-74
2022/04/24 04:10:32;;;;;;;12.88;10.05;;;;;;;;;;5075021;28;20048;-74
2022/04/24 04:12:59;;;;;;;15.45;11.68;;;;;;;;;;5091682;28;20086;-74
2022/04/24 04:15:25;;;;;;;15.80;10.35;;;;;;;;;;5089442;28;20126;-74
2022/04/24 04:17:51;;;;;;;16.55;11.88;;;;;;;;;;5091410;28;20032;-74
2022/04/24 04:20:17;;;;;;;16.27;11.98;;;;;;;;;;5090905;28;20044;-75
2022/04/24 04:22:54;;;;;;;15.45;11.40;;;;;;;;;;5089788;28;20048;-74
2022/04/24 04:25:21;;;;;;;15.55;11.02;;;;;;;;;;5089434;28;20104;-73
2022/04/24 04:27:48;;;;;;;14.38;10.75;;;;;;;;;;5091514;28;20075;-74
2022/04/24 04:30:14;;;;;;;15.30;10.77;;;;;;;;;;5091555;28;20060;-74
2022/04/24 04:32:40;;;;;;;15.07;11.40;;;;;;;;;;5089201;28;20059;-74
2022/04/24 04:35:09;;;;;;;16.83;11.68;;;;;;;;;;5088609;28;20048;-74
2022/04/24 04:37:48;;;;;;;17.10;10.90;;;;;;;;;;5075368;28;20093;-74
2022/04/24 04:40:14;;;;;;;16.30;10.38;;;;;;;;;;5091262;28;20040;-75
2022/04/24 04:42:41;;;;;;;15.82;11.15;;;;;;;;;;5091146;28;20078;-75
2022/04/24 04:45:07;;;;;;;13.77;9.68;;;;;;;;;;5091142;28;20043;-73
2022/04/24 04:47:34;;;;;;;17.92;11.57;;;;;;;;;;5091233;28;20084;-73
2022/04/24 04:50:02;;;;;;;16.00;11.40;;;;;;;;;;5091048;28;20661;-73
2022/04/24 04:52:28;;;;;;;15.48;11.02;;;;;;;;;;5090952;28;20114;-74
2022/04/24 04:54:54;;;;;;;14.65;10.68;;;;;;;;;;5088468;28;20040;-74
2022/04/24 04:57:20;;;;;;;15.80;10.40;;;;;;;;;;5075674;28;20445;-74
2022/04/24 04:59:46;;;;;;;16.20;10.80;;;;;;;;;;5090733;28;20047;-73
2022/04/24 05:02:13;;;;;;;14.48;10.30;;;;;;;;;;5090609;28;20035;-74
2022/04/24 05:04:43;;;;;;;16.33;10.80;;;;;;;;;;5090773;28;20048;-74
2022/04/24 05:07:10;;;;;;;13.55;10.02;;;;;;;;;;5091202;28;20379;-74
2022/04/24 05:09:36;;;;;;;16.55;11.20;;;;;;;;;;5090580;28;20044;-74
2022/04/24 05:12:02;;;;;;;16.10;9.98;;;;;;;;;;5090715;28;20127;-74
2022/04/24 05:14:29;;;;;;;14.30;9.98;;;;;;;;;;5087364;28;20055;-74
2022/04/24 05:16:55;;;;;;;14.77;10.40;;;;;;;;;;5073512;28;20052;-74
2022/04/24 05:19:22;;;;;;;14.18;10.00;;;;;;;;;;5090414;28;20047;-74
2022/04/24 05:21:48;;;;;;;14.60;10.30;;;;;;;;;;5079414;28;20096;-74
2022/04/24 05:24:14;;;;;;;15.60;10.50;;;;;;;;;;5069274;28;20178;-74
2022/04/24 05:26:40;;;;;;;16.05;10.30;;;;;;;;;;5090313;28;20505;-74
2022/04/24 05:29:07;;;;;;;15.90;11.57;;;;;;;;;;5073704;28;20417;-74
2022/04/24 05:31:33;;;;;;;15.30;10.68;;;;;;;;;;5090341;28;20074;-74
2022/04/24 05:33:59;;;;;;;14.25;10.35;;;;;;;;;;5089763;28;20055;-75
2022/04/24 05:36:26;;;;;;;16.73;11.05;;;;;;;;;;5087146;28;20052;-76
2022/04/24 05:38:52;;;;;;;16.70;11.05;;;;;;;;;;5076671;28;20081;-75
2022/04/24 05:41:18;;;;;;;15.68;11.10;;;;;;;;;;5073552;28;20082;-76
2022/04/24 05:43:44;;;;;;;19.33;11.70;;;;;;;;;;5089944;28;20040;-75
2022/04/24 05:46:10;;;;;;;15.63;11.10;;;;;;;;;;5090165;28;20043;-75
2022/04/24 05:48:37;;;;;;;16.73;11.57;;;;;;;;;;5090072;28;20051;-75
2022/04/24 05:51:03;;;;;;;17.30;11.23;;;;;;;;;;5090267;28;20076;-76
2022/04/24 05:53:29;;;;;;;16.08;10.95;;;;;;;;;;5089810;28;20039;-75
2022/04/24 05:55:57;;;;;;;16.70;11.18;;;;;;;;;;5081787;28;20041;-74
2022/04/24 05:58:23;;;;;;;15.88;10.93;;;;;;;;;;5090073;28;20040;-75
2022/04/24 06:00:49;;;;;;;16.88;11.27;;;;;;;;;;5082417;28;20040;-74
2022/04/24 06:03:15;;;;;;;16.38;11.23;;;;;;;;;;5066103;28;20376;-75
2022/04/24 06:05:41;;;;;;;16.67;10.65;;;;;;;;;;5089735;28;20496;-74
2022/04/24 06:08:07;;;;;;;18.08;12.60;;;;;;;;;;5089482;28;20051;-74
2022/04/24 06:10:35;;;;;;;16.08;11.07;;;;;;;;;;5089629;28;20540;-74
2022/04/24 06:13:01;;;;;;;15.05;10.65;;;;;;;;;;5089434;28;20048;-74
2022/04/24 06:15:28;;;;;;;15.48;11.20;;;;;;;;;;5089200;28;20038;-74
2022/04/24 06:17:58;;;;;;;14.85;10.93;;;;;;;;;;5089322;28;20040;-74
2022/04/24 06:20:26;;;;;;;16.65;10.82;;;;;;;;;;5089531;28;20051;-74
2022/04/24 06:22:53;;;;;;;17.58;11.18;;;;;;;;;;5089446;28;20388;-74
2022/04/24 06:25:30;;;;;;;16.95;11.45;;;;;;;;;;5089518;28;20440;-74
2022/04/24 06:27:56;;;;;;;14.25;10.15;;;;;;;;;;5089445;28;20044;-75
2022/04/24 06:30:23;;;;;;;16.17;11.38;;;;;;;;;;5072378;28;20081;-74
2022/04/24 06:32:49;;;;;;;14.95;10.02;;;;;;;;;;5089195;28;20043;-74
2022/04/24 06:35:16;;;;;;;13.80;9.52;;;;;;;;;;5092613;28;20040;-74
2022/04/24 06:37:44;;;;;;;14.18;9.52;;;;;;;;;;5078903;28;20697;-74
2022/04/24 06:40:11;;;;;;;14.88;9.85;;;;;;;;;;5090021;28;20066;-74
2022/04/24 06:42:48;;;;;;;14.10;9.35;;;;;;;;;;5082142;28;20035;-74
2022/04/24 06:45:14;;;;;;;14.07;9.25;;;;;;;;;;5090791;28;20119;-74
2022/04/24 06:47:41;;;;;;;15.18;9.13;;;;;;;;;;5092265;28;20081;-74
2022/04/24 06:50:07;;;;;;;13.77;9.10;;;;;;;;;;5091705;28;20497;-73
2022/04/24 06:52:33;;;;;;;13.73;7.90;;;;;;;;;;5092401;28;20048;-74
2022/04/24 06:55:00;;;;;;;12.02;8.00;;;;;;;;;;5090809;28;20044;-74
2022/04/24 06:57:26;;;;;;;12.20;7.78;;;;;;;;;;5080427;28;20101;-75
2022/04/24 07:00:05;;;;;;;10.00;6.30;;;;;;;;;;5091374;28;20035;-74
2022/04/24 07:02:32;;;;;;;11.65;6.75;;;;;;;;;;5083062;28;20032;-74
2022/04/24 07:04:58;;;;;;;9.85;6.40;;;;;;;;;;5074361;28;20126;-73
2022/04/24 07:07:24;;;;;;;10.35;5.95;;;;;;;;;;5089984;28;20595;-73
2022/04/24 07:09:50;;;;;;;9.60;5.22;;;;;;;;;;5090151;28;20107;-77
2022/04/24 07:12:16;;;;;;;9.05;6.05;;;;;;;;;;5080053;28;20046;-78
2022/04/24 07:14:42;;;;;;;13.60;5.90;;;;;;;;;;5089090;28;20062;-76
2022/04/24 07:17:09;;;;;;;8.60;5.18;;;;;;;;;;5088021;28;20512;-83
2022/04/24 07:19:35;;;;;;;12.20;5.18;;;;;;;;;;5081304;28;20039;-74
2022/04/24 07:22:01;;;;;;;7.28;4.13;;;;;;;;;;5085130;28;20422;-75
2022/04/24 07:24:27;;;;;;;8.70;4.68;;;;;;;;;;5088191;28;20039;-75
2022/04/24 07:26:54;;;;;;;8.02;4.35;;;;;;;;;;5089990;28;20050;-74
2022/04/24 07:29:20;;;;;;;7.55;4.10;;;;;;;;;;5089887;28;20052;-75
2022/04/24 07:31:46;;;;;;;8.43;3.92;;;;;;;;;;5089869;28;20084;-76
2022/04/24 07:34:12;;;;;;;8.48;3.83;;;;;;;;;;5089248;28;20556;-76
2022/04/24 07:36:38;;;;;;;6.63;3.70;;;;;;;;;;5083525;28;20039;-74
2022/04/24 07:39:04;;;;;;;8.05;4.00;;;;;;;;;;5090348;28;20047;-76
2022/04/24 07:41:31;;;;;;;6.82;3.15;;;;;;;;;;5089862;28;20031;-76
2022/04/24 07:43:57;;;;;;;8.20;4.47;;;;;;;;;;5073095;28;20071;-76
2022/04/24 07:46:23;;;;;;;7.70;3.80;;;;;;;;;;5089549;28;20036;-75
2022/04/24 07:48:49;;;;;;;7.97;3.85;;;;;;;;;;5089871;28;20406;-76
2022/04/24 07:51:16;;;;;;;7.72;3.95;;;;;;;;;;5086279;28;20047;-75
2022/04/24 07:53:42;;;;;;;7.50;3.53;;;;;;;;;;5086268;28;20044;-76
2022/04/24 07:56:08;;;;;;;9.68;4.20;;;;;;;;;;5084423;28;20043;-76
2022/04/24 07:58:34;;;;;;;8.40;3.60;;;;;;;;;;5085615;28;20433;-76
2022/04/24 08:01:01;;;;;;;6.22;3.55;;;;;;;;;;5084478;28;20039;-75
2022/04/24 08:03:27;;;;;;;10.05;4.47;;;;;;;;;;5076631;28;20537;-75
2022/04/24 08:05:53;;;;;;;8.05;3.97;;;;;;;;;;5093352;28;20050;-75
2022/04/24 08:08:20;;;;;;;6.85;3.58;;;;;;;;;;5091429;28;20048;-75
2022/04/24 08:10:48;;;;;;;7.47;4.18;;;;;;;;;;5093472;28;20567;-76
2022/04/24 08:13:14;;;;;;;7.45;3.90;;;;;;;;;;5090318;28;20055;-75
2022/04/24 08:15:40;;;;;;;8.85;4.50;;;;;;;;;;5083228;28;20066;-74
2022/04/24 08:18:06;;;;;;;6.28;3.85;;;;;;;;;;5093638;28;20455;-74
2022/04/24 08:20:34;;;;;;;8.20;4.28;;;;;;;;;;5090392;28;20087;-74
2022/04/24 08:23:02;;;;;;;8.48;4.13;;;;;;;;;;5093239;28;20088;-75
2022/04/24 08:25:28;;;;;;;8.82;4.07;;;;;;;;;;5074533;28;20422;-74
2022/04/24 08:27:55;;;;;;;8.00;4.28;;;;;;;;;;5092894;28;20050;-74
2022/04/24 08:30:23;;;;;;;8.75;4.45;;;;;;;;;;5090616;28;20598;-74
2022/04/24 08:32:50;;;;;;;8.65;4.10;;;;;;;;;;5092435;28;20040;-75
2022/04/24 08:35:17;;;;;;;6.63;3.50;;;;;;;;;;5085472;28;20499;-75
2022/04/24 08:37:44;;;;;;;10.73;4.07;;;;;;;;;;5081995;28;20036;-73
2022/04/24 08:40:12;;;;;;;10.70;4.28;;;;;;;;;;5089142;28;20051;-74
2022/04/24 08:42:39;;;;;;;7.60;4.07;;;;;;;;;;5091119;28;20043;-75
2022/04/24 08:45:07;;;;;;;8.07;3.90;;;;;;;;;;5077407;28;20036;-73
2022/04/24 08:47:33;;;;;;;10.13;4.75;;;;;;;;;;5090936;28;20055;-73
2022/04/24 08:50:00;;;;;;;7.57;3.75;;;;;;;;;;5086788;28;20044;-75
2022/04/24 08:52:28;;;;;;;8.38;4.53;;;;;;;;;;5086792;28;20044;-74
2022/04/24 08:54:54;;;;;;;8.27;4.50;;;;;;;;;;5087331;28;20040;-76
2022/04/24 08:57:26;;;;;;;11.20;4.70;;;;;;;;;;5068005;28;20125;-76
2022/04/24 08:59:53;;;;;;;8.40;3.92;;;;;;;;;;5089611;28;20045;-78
2022/04/24 09:02:19;;;;;;;9.38;4.20;;;;;;;;;;5088311;28;20036;-76
2022/04/24 09:04:45;;;;;;;7.40;4.18;;;;;;;;;;5094145;28;20642;-78
2022/04/24 09:07:17;;;;;;;8.38;5.13;;;;;;;;;;5085260;28;20093;-78
2022/04/24 09:09:45;;;;;;;8.30;4.18;;;;;;;;;;5099918;27;20099;-79
2022/04/24 09:12:12;;;;;;;7.28;4.30;;;;;;;;;;5077221;28;20035;-78
2022/04/24 09:14:39;;;;;;;8.13;4.63;;;;;;;;;;5091516;28;20100;-78
2022/04/24 09:17:06;;;;;;;7.80;4.50;;;;;;;;;;5093791;28;20080;-78
2022/04/24 09:19:32;;;;;;;6.97;4.30;;;;;;;;;;5089509;28;20699;-77
2022/04/24 09:22:03;;;;;;;8.35;4.20;;;;;;;;;;5057251;28;20071;-78
2022/04/24 09:24:44;;;;;;;8.05;4.60;;;;;;;;;;5091332;28;20175;-78
2022/04/24 09:27:11;;;;;;;7.97;4.07;;;;;;;;;;5074223;28;20656;-76
2022/04/24 09:29:38;;;;;;;7.45;3.95;;;;;;;;;;5085930;28;20046;-77
2022/04/24 09:32:09;;;;;;;8.23;3.90;;;;;;;;;;5074469;28;20097;-77
2022/04/24 09:34:36;;;;;;;7.68;4.10;;;;;;;;;;5084427;28;20044;-77
2022/04/24 09:37:08;;;;;;;9.68;4.50;;;;;;;;;;5092639;28;20043;-78
2022/04/24 09:39:35;;;;;;;6.40;4.00;;;;;;;;;;5089437;28;20051;-78
2022/04/24 09:42:05;;;;;;;5.65;3.60;;;;;;;;;;5093810;28;20113;-80
2022/04/24 09:44:37;;;;;;;6.82;3.75;;;;;;;;;;5073102;28;20040;-78
2022/04/24 09:47:05;;;;;;;7.05;3.30;;;;;;;;;;5091447;28;20088;-79
2022/04/24 09:49:51;;;;;;;6.43;3.40;;;;;;;;;;5065158;28;20041;-79
2022/04/24 09:52:18;;;;;;;7.70;3.80;;;;;;;;;;5073269;28;20044;-78
2022/04/24 09:54:51;;;;;;;6.55;3.72;;;;;;;;;;5080976;28;20046;-79
2022/04/24 09:57:18;;;;;;;7.72;3.60;;;;;;;;;;5110779;28;20039;-80
2022/04/24 09:59:47;;;;;;;8.75;3.72;;;;;;;;;;5076451;28;20129;-78
2022/04/24 10:02:14;;;;;;;8.35;3.92;;;;;;;;;;5074967;28;20488;-78
2022/04/24 10:04:42;;;;;;;8.68;4.28;;;;;;;;;;5076489;28;20499;-79
2022/04/24 10:07:09;;;;;;;7.40;3.65;;;;;;;;;;5083762;28;20048;-79
2022/04/24 10:09:56;;;;;;;6.00;2.95;;;;;;;;;;5074077;28;20447;-78
2022/04/24 10:12:24;;;;;;;7.45;3.97;;;;;;;;;;5092221;28;20032;-78
2022/04/24 10:14:50;;;;;;;8.43;3.88;;;;;;;;;;5092476;28;20047;-77
2022/04/24 10:17:17;;;;;;;9.27;3.92;;;;;;;;;;5091782;28;20035;-77
2022/04/24 10:19:46;;;;;;;8.00;4.20;;;;;;;;;;5078946;28;20035;-77
2022/04/24 10:22:25;;;;;;;7.93;4.25;;;;;;;;;;5093160;28;20682;-76
2022/04/24 10:24:58;;;;;;;7.45;3.85;;;;;;;;;;5089502;28;20775;-77
2022/04/24 10:27:35;;;;;;;7.03;4.18;;;;;;;;;;5090125;27;20084;-78
2022/04/24 10:30:01;;;;;;;7.63;3.90;;;;;;;;;;5097536;27;20043;-77
2022/04/24 10:32:31;;;;;;;7.32;3.63;;;;;;;;;;5099830;28;20044;-78
2022/04/24 10:34:58;;;;;;;6.38;3.72;;;;;;;;;;5107259;27;20043;-78
2022/04/24 10:37:25;;;;;;;7.75;3.40;;;;;;;;;;5077747;28;20466;-78
2022/04/24 10:39:55;;;;;;;6.10;3.70;;;;;;;;;;5084718;28;20039;-78
2022/04/24 10:42:29;;;;;;;6.75;3.58;;;;;;;;;;5089086;28;20047;-76
2022/04/24 10:44:55;;;;;;;6.88;3.72;;;;;;;;;;5092398;28;20039;-77
2022/04/24 10:47:22;;;;;;;8.38;3.58;;;;;;;;;;5090725;28;20494;-76
2022/04/24 10:49:48;;;;;;;8.05;3.47;;;;;;;;;;5086588;28;20490;-78
2022/04/24 10:52:14;;;;;;;7.18;3.38;;;;;;;;;;5092581;28;20044;-77
2022/04/24 10:54:41;;;;;;;5.32;3.25;;;;;;;;;;5088768;28;20406;-78
2022/04/24 10:57:23;;;;;;;6.63;3.65;;;;;;;;;;5078783;28;20078;-79
2022/04/24 10:59:52;;;;;;;6.57;3.30;;;;;;;;;;5088786;28;20050;-78
2022/04/24 11:02:28;;;;;;;6.70;4.15;;;;;;;;;;5075853;28;20089;-78
2022/04/24 11:05:00;;;;;;;6.30;3.25;;;;;;;;;;5089714;28;20445;-76
2022/04/24 11:07:26;;;;;;;5.90;3.05;;;;;;;;;;5075583;28;20057;-77
2022/04/24 11:10:01;;;;;;;8.15;3.25;;;;;;;;;;5088956;28;20100;-78
2022/04/24 11:12:34;;;;;;;6.30;3.08;;;;;;;;;;5091527;28;20035;-77
2022/04/24 11:15:10;;;;;;;6.28;2.92;;;;;;;;;;5084715;28;20050;-76
2022/04/24 11:17:36;;;;;;;6.28;3.38;;;;;;;;;;5091565;28;20039;-77
2022/04/24 11:20:11;;;;;;;5.65;3.40;;;;;;;;;;5092469;28;20043;-78
2022/04/24 11:22:47;;;;;;;6.22;2.90;;;;;;;;;;5079934;28;20122;-77
2022/04/24 11:25:14;;;;;;;9.55;3.80;;;;;;;;;;5091877;28;20382;-78
2022/04/24 11:27:42;;;;;;;6.35;2.97;;;;;;;;;;5089062;28;20036;-78
2022/04/24 11:30:16;;;;;;;9.65;3.67;;;;;;;;;;5095359;28;20092;-78
2022/04/24 11:32:42;;;;;;;6.93;3.38;;;;;;;;;;5090324;28;20039;-78
2022/04/24 11:35:08;;;;;;;7.35;2.95;;;;;;;;;;5096069;28;20364;-77
2022/04/24 11:37:34;;;;;;;7.18;2.97;;;;;;;;;;5077657;28;20071;-77
2022/04/24 11:40:01;;;;;;;7.63;3.08;;;;;;;;;;5087675;28;20451;-78
2022/04/24 11:42:27;;;;;;;7.47;3.25;;;;;;;;;;5095694;28;20042;-77
2022/04/24 11:50:23;;;;;;;8.25;2.97;;;;;;;;;;5080258;28;20044;-77
2022/04/24 11:52:50;;;;;;;5.22;2.55;;;;;;;;;;5087210;28;20035;-77
2022/04/24 11:56:01;;;;;;;7.40;3.00;;;;;;;;;;5094289;28;20479;-78
2022/04/24 11:58:09;;;;;;;7.75;3.10;;;;;;;;;;5085459;28;20057;-77
2022/04/24 12:00:37;;;;;;;6.88;3.60;;;;;;;;;;5095576;28;20036;-77
2022/04/24 12:03:05;;;;;;;5.85;3.17;;;;;;;;;;5091896;28;20044;-77
2022/04/24 12:05:32;;;;;;;6.78;3.38;;;;;;;;;;5068501;28;20051;-76
2022/04/24 12:07:59;;;;;;;6.10;3.40;;;;;;;;;;5088691;28;20054;-78
2022/04/24 12:10:25;;;;;;;5.68;3.17;;;;;;;;;;5093690;28;20046;-77
2022/04/24 12:12:52;;;;;;;6.20;3.45;;;;;;;;;;5074179;28;20035;-76
2022/04/24 12:15:20;;;;;;;6.35;3.00;;;;;;;;;;5090669;28;20042;-77
2022/04/24 12:17:49;;;;;;;6.50;3.40;;;;;;;;;;5094667;28;20085;-76
2022/04/24 12:20:35;;;;;;;6.60;3.70;;;;;;;;;;5080472;28;20032;-77
2022/04/24 12:23:11;;;;;;;7.00;3.58;;;;;;;;;;5090588;28;20602;-77
2022/04/24 12:25:56;;;;;;;6.53;3.60;;;;;;;;;;5087034;28;20050;-75
2022/04/24 12:28:31;;;;;;;9.50;3.95;;;;;;;;;;5090892;28;20126;-75
2022/04/24 12:30:57;;;;;;;;;;;;;;;;;;5089079;28;20051;-75
2022/04/24 12:33:23;;;;;;;6.78;3.80;;;;;;;;;;5094093;28;19919;-76
2022/04/24 12:35:50;;;;;;;6.68;3.50;;;;;;;;;;5090845;28;20097;-76
2022/04/24 12:38:17;;;;;;;5.43;3.50;;;;;;;;;;5094716;28;20532;-76
2022/04/24 12:40:57;;;;;;;8.55;3.88;;;;;;;;;;5089187;28;20508;-76
2022/04/24 12:43:27;;;;;;;6.80;4.45;;;;;;;;;;5061997;28;20043;-76
2022/04/24 12:45:55;;;;;;;7.47;4.10;;;;;;;;;;5084972;28;20044;-75
2022/04/24 12:48:23;;;;;;;6.35;3.67;;;;;;;;;;5087170;28;20047;-75
2022/04/24 12:50:50;;;;;;;8.93;3.92;;;;;;;;;;5087978;28;20048;-75
2022/04/24 12:53:17;;;;;;;7.65;4.10;;;;;;;;;;5078925;28;20051;-76
2022/04/24 12:55:43;;;;;;;7.30;3.80;;;;;;;;;;5085714;28;20047;-75
2022/04/24 12:58:14;;;;;;;10.30;4.13;;;;;;;;;;5086806;28;20035;-75
2022/04/24 13:00:40;;;;;;;8.70;4.03;;;;;;;;;;5092885;28;20119;-77
2022/04/24 13:03:08;;;;;;;7.47;3.42;;;;;;;;;;5074854;28;20046;-77
2022/04/24 13:05:37;;;;;;;8.48;4.18;;;;;;;;;;5074328;28;20591;-77
2022/04/24 13:08:03;;;;;;;8.90;3.78;;;;;;;;;;5073805;28;20044;-77
2022/04/24 13:10:29;;;;;;;7.70;4.30;;;;;;;;;;5090155;28;20518;-77
2022/04/24 13:13:01;;;;;;;7.60;3.92;;;;;;;;;;5093679;28;20190;-77
2022/04/24 13:15:30;;;;;;;7.53;4.32;;;;;;;;;;5087996;28;20382;-77
2022/04/24 13:18:09;;;;;;;6.75;3.67;;;;;;;;;;5076998;28;20070;-77
2022/04/24 13:20:36;;;;;;;6.95;3.88;;;;;;;;;;5090196;28;20036;-78
2022/04/24 13:23:06;;;;;;;9.20;3.70;;;;;;;;;;5093893;28;20517;-76
2022/04/24 13:25:34;;;;;;;5.15;3.35;;;;;;;;;;5090384;28;20046;-78
2022/04/24 13:28:00;;;;;;;6.53;3.30;;;;;;;;;;5089607;28;20127;-78
2022/04/24 13:30:26;;;;;;;10.30;3.70;;;;;;;;;;5075288;28;20047;-76
2022/04/24 13:32:53;;;;;;;7.30;3.60;;;;;;;;;;5085755;28;20040;-75
2022/04/24 13:35:19;;;;;;;6.75;3.83;;;;;;;;;;5079317;28;20051;-76
2022/04/24 13:40:30;;;;;;;6.57;3.90;;;;;;;;;;5109173;27;20043;-78
2022/04/24 13:42:57;;;;;;;7.25;3.60;;;;;;;;;;5090363;28;20275;-79
2022/04/24 13:45:23;;;;;;;6.93;3.80;;;;;;;;;;5088093;28;20522;-78
2022/04/24 13:47:49;;;;;;;7.03;3.60;;;;;;;;;;5091506;28;20058;-78
2022/04/24 13:50:16;;;;;;;7.10;3.63;;;;;;;;;;5089485;28;20047;-76
2022/04/24 13:52:46;;;;;;;6.60;3.65;;;;;;;;;;5080263;28;20039;-78
2022/04/24 13:55:13;;;;;;;7.07;3.33;;;;;;;;;;5086362;28;20048;-78
2022/04/24 13:57:39;;;;;;;7.70;3.63;;;;;;;;;;5092882;28;20047;-78
2022/04/24 14:00:06;;;;;;;5.78;3.38;;;;;;;;;;5092677;28;20414;-77
2022/04/24 14:02:34;;;;;;;6.07;3.70;;;;;;;;;;5111276;27;20040;-79
2022/04/24 14:05:01;;;;;;;7.05;3.33;;;;;;;;;;5082900;28;20070;-78
2022/04/24 14:07:28;;;;;;;5.68;3.15;;;;;;;;;;5091152;28;20088;-79
2022/04/24 14:09:54;;;;;;;7.85;3.58;;;;;;;;;;5093354;28;20479;-78
2022/04/24 14:12:21;;;;;;;6.32;3.33;;;;;;;;;;5087110;28;20040;-76
2022/04/24 14:14:47;;;;;;;5.10;2.97;;;;;;;;;;5090478;28;20429;-76
2022/04/24 14:17:14;;;;;;;9.48;3.72;;;;;;;;;;5075261;28;20139;-76
2022/04/24 14:19:40;;;;;;;7.00;3.40;;;;;;;;;;5090547;28;20040;-77
2022/04/24 14:22:06;;;;;;;7.90;3.53;;;;;;;;;;5074947;28;20444;-76
2022/04/24 14:24:32;;;;;;;8.35;3.85;;;;;;;;;;5088910;28;20380;-76
2022/04/24 14:26:59;;;;;;;6.75;3.38;;;;;;;;;;5089953;28;20040;-76
2022/04/24 14:29:25;;;;;;;6.18;3.42;;;;;;;;;;5089059;28;20043;-77
2022/04/24 14:31:51;;;;;;;6.03;3.05;;;;;;;;;;5088890;28;20055;-77
2022/04/24 14:34:19;;;;;;;7.47;3.83;;;;;;;;;;5090111;28;20131;-77
2022/04/24 14:36:45;;;;;;;5.90;3.35;;;;;;;;;;5124241;27;20050;-77
2022/04/24 14:39:11;;;;;;;7.13;3.00;;;;;;;;;;5090923;28;20487;-76
2022/04/24 14:41:38;;;;;;;6.05;3.70;;;;;;;;;;5087581;28;20039;-78